createdAt,value
2022-09-29T00:00:36.444Z,0.60
2022-09-29T00:03:03.411Z,0.50
2022-09-29T00:05:30.651Z,0.47
2022-09-29T00:07:57.144Z,0.73
2022-09-29T00:10:23.883Z,0.50
2022-09-29T00:12:50.415Z,0.68
2022-09-29T00:15:16.938Z,2.10
2022-09-29T00:18:02.685Z,0.63
2022-09-29T00:20:30.133Z,0.82
2022-09-29T00:22:56.529Z,1.85
2022-09-29T00:25:22.912Z,0.80
2022-09-29T00:27:49.348Z,0.38
2022-09-29T00:30:15.884Z,0.80
2022-09-29T00:32:42.291Z,1.25
2022-09-29T00:35:10.123Z,0.65
2022-09-29T00:37:36.959Z,0.47
2022-09-29T00:40:04.979Z,0.68
2022-09-29T00:42:32.589Z,0.65
2022-09-29T00:45:24.980Z,0.52
2022-09-29T00:48:05.919Z,1.17
2022-09-29T00:50:53.191Z,0.77
2022-09-29T00:53:22.578Z,0.55
2022-09-29T00:55:56.253Z,0.10
2022-09-29T00:58:34.348Z,0.40
2022-09-29T01:01:01.600Z,0.80
2022-09-29T01:03:35.859Z,2.50
2022-09-29T01:08:42.175Z,0.25
2022-09-29T01:11:10.963Z,0.60
2022-09-29T01:13:38.375Z,0.20
2022-09-29T01:16:05.110Z,0.40
2022-09-29T01:18:32.507Z,0.88
2022-09-29T01:21:16.865Z,0.50
2022-09-29T01:23:54.548Z,0.55
2022-09-29T01:26:23.948Z,0.43
2022-09-29T01:29:07.488Z,0.30
2022-09-29T01:31:52.369Z,0.45
2022-09-29T01:34:24.672Z,1.35
2022-09-29T01:37:06.340Z,0.32
2022-09-29T01:39:41.972Z,0.88
2022-09-29T01:42:17.374Z,2.85
2022-09-29T01:44:50.434Z,0.25
2022-09-29T01:47:23.209Z,1.13
2022-09-29T01:50:11.529Z,0.90
2022-09-29T01:52:45.856Z,0.40
2022-09-29T01:55:17.025Z,0.40
2022-09-29T01:57:50.087Z,0.25
2022-09-29T02:00:19.708Z,0.43
2022-09-29T02:02:58.871Z,0.45
2022-09-29T02:05:33.346Z,0.22
2022-09-29T02:08:32.735Z,0.65
2022-09-29T02:11:04.871Z,0.20
2022-09-29T02:14:06.904Z,1.52
2022-09-29T02:16:43.453Z,0.93
2022-09-29T02:19:22.798Z,0.20
2022-09-29T02:21:49.595Z,1.45
2022-09-29T02:24:16.012Z,0.80
2022-09-29T02:26:45.228Z,0.63
2022-09-29T02:29:11.704Z,0.63
2022-09-29T02:31:40.247Z,0.55
2022-09-29T02:34:10.134Z,1.02
2022-09-29T02:36:53.089Z,0.60
2022-09-29T02:39:53.401Z,0.30
2022-09-29T02:42:49.896Z,0.40
2022-09-29T02:45:21.795Z,0.30
2022-09-29T02:48:12.629Z,3.10
2022-09-29T02:50:52.625Z,0.30
2022-09-29T02:53:27.868Z,0.20
2022-09-29T02:56:04.444Z,0.32
2022-09-29T02:58:39.431Z,0.20
2022-09-29T03:01:07.367Z,2.65
2022-09-29T03:03:33.981Z,0.40
2022-09-29T03:06:00.933Z,0.75
2022-09-29T03:08:27.335Z,1.92
2022-09-29T03:10:53.702Z,0.20
2022-09-29T03:13:20.116Z,0.20
2022-09-29T03:15:46.480Z,0.35
2022-09-29T03:18:13.003Z,0.30
2022-09-29T03:20:39.575Z,0.65
2022-09-29T03:23:05.976Z,2.03
2022-09-29T03:25:32.410Z,0.82
2022-09-29T03:27:58.922Z,0.40
2022-09-29T03:30:25.343Z,2.10
2022-09-29T03:32:52.108Z,1.67
2022-09-29T03:35:18.524Z,1.67
2022-09-29T03:37:45.798Z,1.45
2022-09-29T03:40:12.287Z,0.93
2022-09-29T03:42:38.723Z,1.75
2022-09-29T03:45:05.678Z,0.88
2022-09-29T03:47:32.167Z,0.60
2022-09-29T03:49:58.574Z,0.93
2022-09-29T03:52:24.979Z,1.25
2022-09-29T03:54:51.714Z,1.23
2022-09-29T03:57:18.171Z,0.85
2022-09-29T03:59:45.739Z,0.40
2022-09-29T04:02:12.927Z,2.80
2022-09-29T04:04:39.375Z,1.30
2022-09-29T04:07:05.766Z,0.60
2022-09-29T04:09:32.159Z,0.93
2022-09-29T04:11:58.542Z,0.30
2022-09-29T04:14:24.975Z,0.35
2022-09-29T04:16:51.366Z,2.22
2022-09-29T04:19:17.770Z,1.08
2022-09-29T04:21:44.163Z,0.95
2022-09-29T04:24:10.695Z,0.93
2022-09-29T04:26:37.099Z,1.40
2022-09-29T04:29:03.615Z,1.10
2022-09-29T04:31:30.070Z,1.40
2022-09-29T04:33:56.481Z,2.10
2022-09-29T04:36:23.137Z,3.60
2022-09-29T04:38:51.525Z,2.53
2022-09-29T04:41:18.234Z,4.10
2022-09-29T04:43:44.611Z,4.18
2022-09-29T04:46:11.927Z,5.57
2022-09-29T04:48:38.403Z,1.15
2022-09-29T04:51:05.909Z,1.77
2022-09-29T04:53:32.577Z,1.77
2022-09-29T04:55:59.358Z,2.60
2022-09-29T04:58:25.769Z,1.23
2022-09-29T05:00:52.200Z,1.70
2022-09-29T05:03:18.648Z,1.33
2022-09-29T05:05:45.074Z,5.18
2022-09-29T05:08:11.922Z,4.50
2022-09-29T05:10:38.315Z,2.80
2022-09-29T05:13:04.736Z,5.97
2022-09-29T05:15:31.128Z,2.47
2022-09-29T05:18:01.415Z,3.13
2022-09-29T05:20:34.155Z,2.00
2022-09-29T05:23:09.961Z,3.53
2022-09-29T05:25:37.691Z,3.53
2022-09-29T05:28:04.105Z,3.13
2022-09-29T05:30:30.490Z,1.65
2022-09-29T05:32:59.016Z,3.22
2022-09-29T05:35:25.739Z,4.43
2022-09-29T05:37:52.159Z,1.65
2022-09-29T05:40:19.672Z,1.35
2022-09-29T05:42:46.258Z,1.42
2022-09-29T05:45:12.675Z,1.48
2022-09-29T05:47:43.475Z,2.10
2022-09-29T05:50:13.526Z,6.22
2022-09-29T05:52:41.479Z,3.25
2022-09-29T05:55:11.264Z,2.38
2022-09-29T05:57:37.692Z,1.42
2022-09-29T06:00:05.279Z,3.58
2022-09-29T06:02:32.673Z,2.80
2022-09-29T06:04:59.079Z,2.00
2022-09-29T06:07:25.466Z,3.53
2022-09-29T06:09:51.900Z,5.38
2022-09-29T06:12:21.673Z,2.63
2022-09-29T06:14:48.342Z,3.30
2022-09-29T06:17:14.746Z,2.13
2022-09-29T06:19:44.644Z,4.10
2022-09-29T06:22:11.487Z,5.22
2022-09-29T06:24:37.983Z,2.58
2022-09-29T06:27:04.400Z,3.47
2022-09-29T06:29:30.946Z,2.17
2022-09-29T06:31:57.363Z,2.80
2022-09-29T06:37:28.156Z,1.48
2022-09-29T06:39:54.510Z,1.20
2022-09-29T06:42:20.909Z,3.40
2022-09-29T06:44:47.299Z,4.13
2022-09-29T06:47:13.697Z,3.88
2022-09-29T06:49:40.077Z,3.97
2022-09-29T06:52:18.424Z,3.72
2022-09-29T06:54:47.234Z,6.55
2022-09-29T06:57:13.768Z,5.05
2022-09-29T06:59:40.480Z,4.63
2022-09-29T07:02:07.079Z,5.10
2022-09-29T07:04:33.731Z,6.07
2022-09-29T07:07:00.196Z,6.38
2022-09-29T07:09:26.618Z,6.88
2022-09-29T07:11:53.081Z,5.95
2022-09-29T07:14:22.644Z,6.05
2022-09-29T07:16:49.865Z,7.75
2022-09-29T07:19:18.279Z,5.28
2022-09-29T07:21:46.078Z,6.47
2022-09-29T07:24:13.025Z,5.45
2022-09-29T07:26:39.436Z,6.05
2022-09-29T07:29:05.834Z,8.02
2022-09-29T07:31:42.713Z,8.18
2022-09-29T07:34:14.156Z,7.57
2022-09-29T07:36:40.604Z,7.45
2022-09-29T07:39:09.156Z,3.22
2022-09-29T07:41:35.522Z,6.35
2022-09-29T07:44:02.211Z,4.93
2022-09-29T07:46:28.649Z,6.30
2022-09-29T07:48:55.118Z,8.13
2022-09-29T07:51:21.586Z,4.78
2022-09-29T07:53:49.101Z,5.75
2022-09-29T07:56:21.086Z,8.20
2022-09-29T07:58:49.853Z,5.60
2022-09-29T08:01:17.979Z,6.20
2022-09-29T08:03:50.213Z,5.15
2022-09-29T08:06:16.646Z,5.18
2022-09-29T08:08:51.369Z,3.70
2022-09-29T08:11:30.443Z,4.38
2022-09-29T08:13:57.791Z,3.22
2022-09-29T08:16:24.275Z,3.85
2022-09-29T08:18:50.783Z,5.15
2022-09-29T08:21:17.626Z,4.20
2022-09-29T08:23:44.219Z,4.47
2022-09-29T08:26:16.384Z,8.48
2022-09-29T08:28:44.402Z,4.60
2022-09-29T08:31:15.227Z,3.80
2022-09-29T08:33:41.691Z,4.00
2022-09-29T08:36:14.742Z,4.35
2022-09-29T08:38:46.270Z,7.15
2022-09-29T08:41:31.158Z,4.03
2022-09-29T08:44:03.339Z,5.45
2022-09-29T08:46:39.706Z,2.90
2022-09-29T08:49:32.681Z,4.05
2022-09-29T08:52:16.349Z,5.43
2022-09-29T08:54:48.725Z,4.43
2022-09-29T08:57:21.561Z,2.92
2022-09-29T08:59:59.286Z,2.72
2022-09-29T09:02:50.888Z,4.97
2022-09-29T09:05:55.837Z,4.28
2022-09-29T09:08:32.802Z,2.72
2022-09-29T09:11:27.455Z,4.25
2022-09-29T09:14:21.263Z,3.42
2022-09-29T09:16:47.636Z,3.70
2022-09-29T09:19:39.218Z,8.32
2022-09-29T09:22:22.719Z,2.20
2022-09-29T09:25:01.494Z,2.80
2022-09-29T09:27:35.359Z,3.72
2022-09-29T09:30:06.727Z,2.42
2022-09-29T09:32:45.754Z,3.88
2022-09-29T09:35:29.185Z,2.28
2022-09-29T09:38:01.591Z,3.75
2022-09-29T09:40:35.733Z,2.72
2022-09-29T09:45:48.881Z,3.55
2022-09-29T09:48:22.869Z,3.00
2022-09-29T09:50:50.566Z,2.17
2022-09-29T09:53:28.684Z,2.42
2022-09-29T09:56:04.408Z,4.57
2022-09-29T09:58:51.015Z,3.45
2022-09-29T10:01:17.867Z,1.85
2022-09-29T10:03:44.332Z,2.30
2022-09-29T10:06:10.812Z,4.72
2022-09-29T10:08:42.026Z,1.92
2022-09-29T10:11:25.199Z,1.83
2022-09-29T10:14:13.156Z,1.40
2022-09-29T10:16:53.826Z,2.55
2022-09-29T10:19:57.521Z,3.17
2022-09-29T10:22:24.833Z,1.85
2022-09-29T10:25:15.438Z,2.90
2022-09-29T10:27:45.426Z,2.75
2022-09-29T10:30:24.636Z,1.52
2022-09-29T10:32:58.559Z,2.60
2022-09-29T10:35:32.378Z,1.75
2022-09-29T10:38:06.236Z,4.82
2022-09-29T10:40:33.001Z,3.00
2022-09-29T10:43:22.516Z,2.85
2022-09-29T10:45:49.226Z,2.92
2022-09-29T10:48:16.347Z,2.30
2022-09-29T10:50:53.990Z,2.28
2022-09-29T10:53:36.939Z,3.90
2022-09-29T10:56:14.892Z,3.47
2022-09-29T10:58:53.856Z,3.15
2022-09-29T11:01:26.163Z,2.90
2022-09-29T11:04:01.455Z,2.80
2022-09-29T11:06:30.333Z,4.15
2022-09-29T11:08:58.374Z,2.20
2022-09-29T11:11:31.288Z,3.65
2022-09-29T11:13:59.323Z,3.13
2022-09-29T11:16:40.197Z,4.15
2022-09-29T11:19:12.656Z,2.55
2022-09-29T11:21:41.954Z,3.05
2022-09-29T11:24:17.556Z,2.97
2022-09-29T11:26:53.198Z,2.90
2022-09-29T11:29:50.406Z,2.47
2022-09-29T11:32:37.834Z,4.20
2022-09-29T11:35:06.096Z,4.22
2022-09-29T11:37:57.919Z,4.63
2022-09-29T11:40:47.598Z,3.38
2022-09-29T11:43:35.343Z,3.90
2022-09-29T11:46:29.418Z,2.08
2022-09-29T11:49:01.450Z,2.83
2022-09-29T11:51:49.539Z,4.20
2022-09-29T11:54:46.063Z,3.08
2022-09-29T11:57:36.845Z,3.30
2022-09-29T12:00:12.036Z,1.67
2022-09-29T12:02:55.207Z,4.25
2022-09-29T12:05:44.759Z,2.42
2022-09-29T12:08:29.872Z,2.35
2022-09-29T12:11:44.256Z,2.95
2022-09-29T12:14:18.255Z,2.45
2022-09-29T12:16:57.276Z,2.13
2022-09-29T12:19:29.002Z,2.13
2022-09-29T12:21:59.577Z,3.13
2022-09-29T12:24:42.973Z,2.25
2022-09-29T12:27:28.096Z,1.92
2022-09-29T12:30:03.839Z,2.42
2022-09-29T12:32:41.323Z,1.63
2022-09-29T12:35:31.052Z,2.40
2022-09-29T12:38:08.895Z,3.20
2022-09-29T12:40:41.719Z,1.90
2022-09-29T12:43:33.057Z,1.45
2022-09-29T12:46:32.359Z,1.80
2022-09-29T12:49:06.479Z,2.25
2022-09-29T12:51:35.487Z,2.00
2022-09-29T12:54:42.716Z,2.67
2022-09-29T12:57:17.294Z,2.53
2022-09-29T13:00:01.227Z,2.75
2022-09-29T13:02:46.999Z,3.15
2022-09-29T13:05:19.172Z,1.30
2022-09-29T13:08:02.250Z,2.90
2022-09-29T13:10:54.076Z,2.75
2022-09-29T13:13:49.998Z,2.22
2022-09-29T13:16:25.398Z,1.27
2022-09-29T13:19:23.057Z,1.63
2022-09-29T13:22:25.131Z,1.80
2022-09-29T13:25:11.224Z,1.15
2022-09-29T13:27:42.381Z,1.48
2022-09-29T13:30:14.625Z,1.30
2022-09-29T13:32:46.676Z,0.95
2022-09-29T13:35:24.521Z,1.63
2022-09-29T13:38:03.075Z,1.33
2022-09-29T13:40:30.824Z,1.33
2022-09-29T13:42:59.361Z,1.17
2022-09-29T13:45:30.774Z,1.13
2022-09-29T13:48:01.977Z,1.25
2022-09-29T13:50:45.310Z,1.63
2022-09-29T13:53:32.893Z,0.98
2022-09-29T13:56:02.371Z,1.17
2022-09-29T13:58:33.564Z,2.78
2022-09-29T14:01:02.624Z,2.40
2022-09-29T14:03:43.743Z,1.52
2022-09-29T14:06:39.565Z,1.70
2022-09-29T14:09:15.389Z,4.00
2022-09-29T14:11:50.778Z,2.75
2022-09-29T14:14:29.500Z,1.60
2022-09-29T14:17:05.441Z,4.47
2022-09-29T14:19:53.073Z,4.00
2022-09-29T14:22:31.412Z,1.40
2022-09-29T14:25:15.199Z,2.13
2022-09-29T14:28:03.108Z,1.25
2022-09-29T14:30:35.840Z,5.72
2022-09-29T14:33:31.374Z,5.53
2022-09-29T14:36:00.718Z,2.95
2022-09-29T14:38:44.743Z,1.40
2022-09-29T14:41:11.259Z,1.52
2022-09-29T14:43:42.805Z,1.33
2022-09-29T14:47:05.544Z,2.17
2022-09-29T14:49:56.650Z,3.38
2022-09-29T14:52:42.110Z,1.83
2022-09-29T14:55:28.632Z,3.45
2022-09-29T14:58:23.489Z,7.70
2022-09-29T15:03:35.631Z,2.28
2022-09-29T15:06:17.899Z,2.20
2022-09-29T15:09:00.923Z,0.98
2022-09-29T15:11:38.219Z,2.88
2022-09-29T15:14:23.638Z,2.17
2022-09-29T15:17:06.849Z,5.78
2022-09-29T15:19:44.910Z,1.25
2022-09-29T15:22:37.853Z,0.90
2022-09-29T15:25:27.818Z,0.93
2022-09-29T15:27:55.839Z,1.60
2022-09-29T15:30:23.637Z,1.10
2022-09-29T15:32:52.084Z,1.58
2022-09-29T15:35:24.613Z,1.05
2022-09-29T15:37:50.968Z,1.42
2022-09-29T15:40:21.352Z,1.13
2022-09-29T15:42:48.278Z,1.40
2022-09-29T15:45:22.104Z,3.58
2022-09-29T15:47:48.722Z,0.80
2022-09-29T15:50:19.614Z,1.13
2022-09-29T15:52:46.639Z,1.35
2022-09-29T15:55:24.041Z,1.58
2022-09-29T15:57:57.902Z,1.95
2022-09-29T16:00:24.348Z,1.73
2022-09-29T16:03:06.004Z,2.33
2022-09-29T16:05:40.059Z,2.65
2022-09-29T16:08:20.165Z,1.60
2022-09-29T16:10:55.166Z,2.22
2022-09-29T16:13:31.151Z,2.55
2022-09-29T16:16:01.653Z,2.50
2022-09-29T16:18:38.622Z,4.00
2022-09-29T16:21:09.192Z,2.45
2022-09-29T16:23:59.027Z,7.13
2022-09-29T16:26:31.491Z,2.53
2022-09-29T16:29:04.007Z,4.53
2022-09-29T16:31:31.853Z,3.88
2022-09-29T16:34:00.706Z,2.58
2022-09-29T16:36:29.131Z,2.15
2022-09-29T16:38:55.617Z,3.80
2022-09-29T16:41:34.328Z,4.32
2022-09-29T16:44:13.124Z,2.70
2022-09-29T16:47:04.117Z,1.75
2022-09-29T16:49:33.420Z,2.42
2022-09-29T16:52:19.658Z,2.03
2022-09-29T16:54:47.873Z,2.20
2022-09-29T16:57:30.337Z,2.20
2022-09-29T16:59:59.367Z,2.92
2022-09-29T17:02:27.600Z,2.55
2022-09-29T17:04:55.574Z,2.38
2022-09-29T17:07:27.386Z,1.75
2022-09-29T17:09:56.586Z,4.72
2022-09-29T17:12:24.199Z,4.07
2022-09-29T17:14:51.069Z,3.28
2022-09-29T17:17:22.452Z,2.95
2022-09-29T17:19:50.563Z,3.05
2022-09-29T17:22:37.023Z,7.03
2022-09-29T17:25:04.246Z,3.35
2022-09-29T17:27:49.051Z,2.17
2022-09-29T17:30:22.832Z,3.35
2022-09-29T17:32:50.918Z,3.38
2022-09-29T17:35:19.313Z,1.65
2022-09-29T17:37:48.519Z,2.40
2022-09-29T17:40:25.443Z,3.53
2022-09-29T17:42:51.987Z,4.20
2022-09-29T17:45:20.609Z,4.05
2022-09-29T17:47:48.513Z,2.20
2022-09-29T17:50:24.806Z,2.83
2022-09-29T17:52:52.245Z,5.13
2022-09-29T17:55:19.178Z,2.28
2022-09-29T17:57:47.439Z,8.30
2022-09-29T18:00:21.268Z,2.00
2022-09-29T18:02:50.393Z,1.65
2022-09-29T18:05:23.756Z,1.98
2022-09-29T18:07:55.287Z,1.37
2022-09-29T18:10:36.006Z,1.65
2022-09-29T18:13:02.383Z,2.55
2022-09-29T18:15:28.743Z,4.38
2022-09-29T18:17:57.210Z,3.20
2022-09-29T18:20:24.999Z,2.63
2022-09-29T18:22:51.425Z,1.40
2022-09-29T18:25:19.345Z,2.03
2022-09-29T18:27:47.235Z,2.05
2022-09-29T18:30:19.539Z,3.58
2022-09-29T18:32:55.377Z,1.23
2022-09-29T18:35:24.584Z,1.17
2022-09-29T18:37:51.422Z,3.05
2022-09-29T18:40:19.140Z,1.45
2022-09-29T18:42:48.095Z,1.60
2022-09-29T18:45:23.146Z,4.20
2022-09-29T18:47:55.016Z,1.67
2022-09-29T18:50:27.515Z,1.15
2022-09-29T18:52:54.558Z,0.73
2022-09-29T18:55:25.613Z,1.15
2022-09-29T18:57:56.923Z,2.35
2022-09-29T19:00:26.096Z,0.98
2022-09-29T19:02:53.004Z,0.57
2022-09-29T19:05:28.845Z,1.60
2022-09-29T19:07:58.469Z,0.65
2022-09-29T19:10:25.663Z,0.93
2022-09-29T19:12:58.510Z,1.25
2022-09-29T19:15:25.998Z,1.30
2022-09-29T19:17:56.750Z,3.55
2022-09-29T19:20:28.226Z,1.35
2022-09-29T19:22:55.694Z,0.93
2022-09-29T19:25:25.256Z,0.57
2022-09-29T19:27:52.701Z,1.27
2022-09-29T19:30:21.574Z,3.50
2022-09-29T19:32:49.091Z,1.67
2022-09-29T19:35:19.772Z,3.78
2022-09-29T19:37:46.567Z,0.75
2022-09-29T19:40:19.066Z,0.65
2022-09-29T19:42:45.460Z,0.57
2022-09-29T19:45:12.007Z,1.08
2022-09-29T19:47:38.511Z,0.85
2022-09-29T19:50:25.300Z,0.82
2022-09-29T19:52:51.686Z,0.50
2022-09-29T19:55:18.274Z,0.43
2022-09-29T19:57:45.006Z,1.02
2022-09-29T20:00:19.474Z,1.48
2022-09-29T20:02:46.706Z,0.80
2022-09-29T20:05:14.980Z,0.47
2022-09-29T20:07:44.026Z,0.70
2022-09-29T20:10:16.514Z,0.75
2022-09-29T20:12:43.113Z,0.50
2022-09-29T20:15:11.873Z,0.90
2022-09-29T20:17:40.237Z,1.60
2022-09-29T20:20:10.031Z,1.00
2022-09-29T20:22:36.887Z,0.80
2022-09-29T20:25:05.318Z,0.98
2022-09-29T20:27:31.885Z,2.63
2022-09-29T20:29:58.332Z,0.63
2022-09-29T20:32:24.862Z,0.40
2022-09-29T20:34:51.339Z,0.65
2022-09-29T20:37:17.768Z,2.58
2022-09-29T20:39:44.222Z,1.05
2022-09-29T20:42:11.758Z,1.13
2022-09-29T20:44:38.155Z,2.40
2022-09-29T20:47:04.573Z,1.63
2022-09-29T20:49:31.020Z,0.98
2022-09-29T20:51:59.208Z,0.25
2022-09-29T20:54:25.726Z,1.05
2022-09-29T20:56:53.575Z,1.13
2022-09-29T20:59:23.539Z,0.65
2022-09-29T21:01:52.294Z,0.63
2022-09-29T21:04:20.974Z,0.45
2022-09-29T21:06:49.882Z,0.17
2022-09-29T21:09:19.908Z,0.30
2022-09-29T21:11:47.229Z,0.65
2022-09-29T21:14:19.473Z,0.60
2022-09-29T21:16:48.600Z,0.63
2022-09-29T21:19:15.034Z,0.70
2022-09-29T21:21:43.481Z,2.67
2022-09-29T21:24:10.899Z,0.68
2022-09-29T21:26:37.699Z,1.08
2022-09-29T21:29:04.211Z,1.17
2022-09-29T21:31:33.605Z,0.25
2022-09-29T21:34:02.213Z,0.30
2022-09-29T21:36:30.362Z,0.52
2022-09-29T21:39:00.777Z,1.38
2022-09-29T21:41:34.637Z,0.50
2022-09-29T21:44:06.237Z,0.43
2022-09-29T21:46:34.236Z,0.40
2022-09-29T21:49:03.587Z,1.17
2022-09-29T21:51:35.891Z,1.95
2022-09-29T21:54:02.971Z,1.08
2022-09-29T21:56:31.986Z,2.20
2022-09-29T21:58:59.018Z,0.98
2022-09-29T22:01:27.332Z,0.60
2022-09-29T22:03:56.119Z,0.85
2022-09-29T22:06:28.186Z,0.50
2022-09-29T22:08:56.152Z,0.70
2022-09-29T22:11:25.723Z,0.30
2022-09-29T22:13:55.746Z,0.43
2022-09-29T22:16:25.529Z,0.40
2022-09-29T22:19:18.403Z,0.93
2022-09-29T22:21:40.456Z,0.40
2022-09-29T22:24:07.262Z,1.58
2022-09-29T22:26:33.795Z,0.75
2022-09-29T22:29:02.791Z,0.47
2022-09-29T22:31:30.910Z,0.73
2022-09-29T22:34:00.170Z,0.40
2022-09-29T22:36:28.703Z,0.85
2022-09-29T22:38:55.141Z,0.57
2022-09-29T22:41:23.887Z,0.43
2022-09-29T22:43:55.385Z,0.22
2022-09-29T22:46:23.465Z,0.32
2022-09-29T22:48:49.941Z,1.30
2022-09-29T22:51:16.494Z,0.20
2022-09-29T22:53:43.134Z,0.77
2022-09-29T22:56:12.583Z,0.30
2022-09-29T22:58:40.293Z,0.30
2022-09-29T23:01:13.683Z,0.10
2022-09-29T23:03:41.690Z,0.30
2022-09-29T23:06:08.241Z,0.20
2022-09-29T23:08:36.296Z,0.15
2022-09-29T23:11:05.402Z,0.82
2022-09-29T23:13:34.258Z,2.05
2022-09-29T23:16:09.642Z,1.25
2022-09-29T23:18:43.698Z,1.25
2022-09-29T23:21:11.914Z,1.27
2022-09-29T23:23:38.468Z,0.30
2022-09-29T23:26:05.178Z,0.50
2022-09-29T23:28:31.559Z,0.40
2022-09-29T23:31:06.451Z,0.68
2022-09-29T23:33:33.068Z,0.40
2022-09-29T23:36:13.804Z,1.85
2022-09-29T23:39:00.760Z,0.30
2022-09-29T23:41:29.813Z,0.40
2022-09-29T23:43:58.321Z,0.57
2022-09-29T23:46:26.867Z,0.82
2022-09-29T23:48:53.381Z,0.30
2022-09-29T23:51:19.786Z,1.05
2022-09-29T23:53:46.586Z,0.28
2022-09-29T23:56:12.988Z,0.43
2022-09-29T23:58:39.491Z,0.10
